SWR561 LFMN-LSZH
Flight info
| Callsign | SWR561 |
|---|---|
| Flight time | N/A |
| Altitude | 18000 |
| Route | BASIP Y15 ANAKI DCT CANNE Z651 KELIP |
| Aircraft | A21N/M-SDE2E3FGHIRWXY/LB1 |
Departure
| Time | N/A |
|---|---|
| Airport | Nice-Côte d'Azur Airport (LFMN) |
Arrival
| Time | 2026-04-30 18:15 |
|---|---|
| Airport | Zürich Airport (LSZH) |
| Time | Latitude | Longitude | Altitude | Speed | Heading |
|---|---|---|---|---|---|
| 2026-04-30 17:39 | 44.88991 | 8.77888 | 18213 ft | 423 kts | 3° |
| 2026-04-30 17:41 | 45.12537 | 8.79734 | 18235 ft | 425 kts | 3° |
| 2026-04-30 17:42 | 45.18451 | 8.80201 | 18234 ft | 424 kts | 3° |
| 2026-04-30 17:42 | 45.27255 | 8.80900 | 18259 ft | 424 kts | 3° |
| 2026-04-30 17:43 | 45.33159 | 8.81379 | 18265 ft | 424 kts | 3° |
| 2026-04-30 17:44 | 45.42011 | 8.82082 | 18262 ft | 424 kts | 3° |
| 2026-04-30 17:44 | 45.50820 | 8.82784 | 18260 ft | 424 kts | 3° |
| 2026-04-30 17:46 | 45.65545 | 8.83958 | 18238 ft | 424 kts | 3° |
| 2026-04-30 17:47 | 45.77354 | 8.84903 | 18249 ft | 424 kts | 3° |
| 2026-04-30 17:48 | 45.89135 | 8.85859 | 18244 ft | 424 kts | 4° |
| 2026-04-30 17:48 | 45.97980 | 8.86579 | 18245 ft | 424 kts | 4° |
| 2026-04-30 17:49 | 46.09733 | 8.87534 | 18273 ft | 424 kts | 4° |
| 2026-04-30 17:50 | 46.21477 | 8.87387 | 18273 ft | 424 kts | 355° |
| 2026-04-30 17:51 | 46.30295 | 8.86051 | 18265 ft | 425 kts | 355° |
| 2026-04-30 17:52 | 46.39104 | 8.84743 | 18244 ft | 426 kts | 355° |
| 2026-04-30 17:53 | 46.53867 | 8.82520 | 18240 ft | 428 kts | 355° |
| 2026-04-30 17:54 | 46.65764 | 8.80709 | 18247 ft | 430 kts | 355° |
| 2026-04-30 17:55 | 46.77660 | 8.78914 | 18250 ft | 431 kts | 355° |
| 2026-04-30 17:56 | 46.89556 | 8.77091 | 18247 ft | 430 kts | 355° |
| 2026-04-30 17:57 | 46.98388 | 8.75740 | 17125 ft | 417 kts | 355° |
| 2026-04-30 17:58 | 47.06767 | 8.74398 | 15647 ft | 394 kts | 355° |
| 2026-04-30 17:59 | 47.17299 | 8.71725 | 13630 ft | 376 kts | 351° |
| 2026-04-30 18:00 | 47.27327 | 8.68722 | 11503 ft | 364 kts | 342° |
| 2026-04-30 18:00 | 47.33965 | 8.64270 | 10955 ft | 330 kts | 337° |
| 2026-04-30 18:01 | 47.37940 | 8.61429 | 10715 ft | 307 kts | 330° |
| 2026-04-30 18:02 | 47.43262 | 8.56724 | 10334 ft | 294 kts | 330° |
| 2026-04-30 18:02 | 47.47855 | 8.51063 | 9643 ft | 294 kts | 286° |
| 2026-04-30 18:03 | 47.45193 | 8.44008 | 9237 ft | 289 kts | 205° |
| 2026-04-30 18:04 | 47.39825 | 8.45254 | 8845 ft | 279 kts | 127° |
| 2026-04-30 18:05 | 47.41660 | 8.54556 | 8336 ft | 279 kts | 18° |
| 2026-04-30 18:06 | 47.49211 | 8.52264 | 7833 ft | 284 kts | 338° |
| 2026-04-30 18:07 | 47.56445 | 8.47493 | 6798 ft | 288 kts | 339° |
| 2026-04-30 18:08 | 47.61776 | 8.43972 | 5976 ft | 269 kts | 339° |
| 2026-04-30 18:09 | 47.66556 | 8.36477 | 4326 ft | 277 kts | 255° |
| 2026-04-30 18:10 | 47.61753 | 8.34993 | 3992 ft | 175 kts | 130° |
| 2026-04-30 18:11 | 47.58390 | 8.39652 | 3988 ft | 167 kts | 130° |
| 2026-04-30 18:11 | 47.55833 | 8.43163 | 3521 ft | 165 kts | 129° |
| 2026-04-30 18:12 | 47.53337 | 8.46585 | 2863 ft | 162 kts | 129° |
| 2026-04-30 18:13 | 47.51771 | 8.48726 | 2437 ft | 145 kts | 129° |
| 2026-04-30 18:13 | 47.49783 | 8.51450 | 1886 ft | 145 kts | 130° |
| 2026-04-30 18:14 | 47.48069 | 8.53802 | 1432 ft | 145 kts | 131° |
| 2026-04-30 18:15 | 47.46732 | 8.55615 | 1399 ft | 24 kts | 149° |
| 2026-04-30 18:15 | 47.46379 | 8.55765 | 1407 ft | 12 kts | 147° |
| 2026-04-30 18:16 | 47.46282 | 8.55895 | 1407 ft | 9 kts | 137° |
| 2026-04-30 18:16 | 47.46155 | 8.56069 | 1416 ft | 11 kts | 137° |
| 2026-04-30 18:17 | 47.46104 | 8.56140 | 1408 ft | 9 kts | 136° |
| 2026-04-30 18:17 | 47.46064 | 8.56195 | 1409 ft | 8 kts | 137° |
| 2026-04-30 18:17 | 47.45945 | 8.56307 | 1415 ft | 10 kts | 178° |
| 2026-04-30 18:18 | 47.45849 | 8.56298 | 1415 ft | 15 kts | 185° |
| 2026-04-30 18:18 | 47.45763 | 8.56286 | 1417 ft | 12 kts | 186° |
| 2026-04-30 18:18 | 47.45658 | 8.56270 | 1416 ft | 12 kts | 186° |
| 2026-04-30 18:18 | 47.45579 | 8.56258 | 1415 ft | 11 kts | 186° |
| 2026-04-30 18:19 | 47.45492 | 8.56229 | 1408 ft | 12 kts | 221° |
| 2026-04-30 18:19 | 47.45482 | 8.56106 | 1407 ft | 12 kts | 278° |
| 2026-04-30 18:19 | 47.45491 | 8.55998 | 1410 ft | 8 kts | 276° |
| 2026-04-30 18:19 | 47.45467 | 8.55953 | 1409 ft | 6 kts | 183° |
| 2026-04-30 18:20 | 47.45425 | 8.55948 | 1407 ft | 6 kts | 186° |
| 2026-04-30 18:20 | 47.45413 | 8.55946 | 1407 ft | 0 kts | 186° |